createdAt,value
2022-10-24T00:02:48.920Z,100647.28
2022-10-24T00:05:53.210Z,100655.00
2022-10-24T00:08:58.546Z,100648.91
2022-10-24T00:12:01.110Z,100615.72
2022-10-24T00:15:05.338Z,100615.66
2022-10-24T00:18:08.017Z,100625.94
2022-10-24T00:21:12.211Z,100650.59
2022-10-24T00:24:15.086Z,100663.84
2022-10-24T00:27:17.926Z,100665.41
2022-10-24T00:30:20.806Z,100658.59
2022-10-24T00:33:23.670Z,100665.78
2022-10-24T00:36:28.969Z,100657.78
2022-10-24T00:39:31.740Z,100655.06
2022-10-24T00:42:34.393Z,100663.28
2022-10-24T00:45:43.241Z,100669.94
2022-10-24T00:48:49.421Z,100673.56
2022-10-24T00:51:57.459Z,100696.75
2022-10-24T00:55:02.451Z,100703.34
2022-10-24T00:58:07.593Z,100703.63
2022-10-24T01:01:10.580Z,100703.28
2022-10-24T01:04:14.472Z,100697.78
2022-10-24T01:07:30.274Z,100715.75
2022-10-24T01:10:43.597Z,100695.63
2022-10-24T01:13:58.697Z,100690.13
2022-10-24T01:17:08.566Z,100685.97
2022-10-24T01:20:26.491Z,100679.63
2022-10-24T01:24:20.606Z,100678.44
2022-10-24T01:27:42.088Z,100667.41
2022-10-24T01:30:51.373Z,100650.59
2022-10-24T01:34:00.040Z,100646.94
2022-10-24T01:37:05.625Z,100653.59
2022-10-24T01:40:13.854Z,100653.38
2022-10-24T01:43:18.620Z,100640.97
2022-10-24T01:46:27.941Z,100633.75
2022-10-24T01:49:35.073Z,100640.59
2022-10-24T01:52:41.610Z,100633.72
2022-10-24T01:55:46.670Z,100640.69
2022-10-24T01:58:49.319Z,100619.97
2022-10-24T02:01:55.712Z,100618.88
2022-10-24T02:05:06.025Z,100623.34
2022-10-24T02:08:12.083Z,100622.00
2022-10-24T02:11:15.165Z,100617.88
2022-10-24T02:14:21.536Z,100610.47
2022-10-24T02:17:25.770Z,100608.00
2022-10-24T02:20:32.033Z,100604.69
2022-10-24T02:23:39.662Z,100607.22
2022-10-24T02:26:49.813Z,100597.78
2022-10-24T02:29:57.523Z,100603.00
2022-10-24T02:33:01.874Z,100598.66
2022-10-24T02:36:07.066Z,100595.41
2022-10-24T02:39:11.618Z,100589.31
2022-10-24T02:42:15.544Z,100573.88
2022-10-24T02:45:19.420Z,100567.78
2022-10-24T02:48:29.095Z,100570.56
2022-10-24T02:51:35.004Z,100577.75
2022-10-24T02:54:37.659Z,100583.81
2022-10-24T02:57:40.429Z,100587.13
2022-10-24T03:00:43.021Z,100587.13
2022-10-24T03:03:47.556Z,100581.38
2022-10-24T03:06:50.284Z,100583.59
2022-10-24T03:09:52.855Z,100590.47
2022-10-24T03:12:55.572Z,100593.78
2022-10-24T03:15:58.150Z,100599.03
2022-10-24T03:19:02.269Z,100594.66
2022-10-24T03:22:05.229Z,100590.78
2022-10-24T03:25:08.357Z,100585.03
2022-10-24T03:28:11.090Z,100593.59
2022-10-24T03:31:13.673Z,100589.44
2022-10-24T03:34:17.769Z,100592.50
2022-10-24T03:37:20.582Z,100595.00
2022-10-24T03:40:23.139Z,100600.50
2022-10-24T03:43:25.951Z,100595.53
2022-10-24T03:46:28.524Z,100589.19
2022-10-24T03:49:33.444Z,100589.50
2022-10-24T03:52:36.217Z,100591.16
2022-10-24T03:55:38.823Z,100582.63
2022-10-24T03:58:41.508Z,100592.25
2022-10-24T04:01:44.231Z,100594.22
2022-10-24T04:04:48.468Z,100592.31
2022-10-24T04:07:51.054Z,100579.34
2022-10-24T04:10:53.693Z,100590.38
2022-10-24T04:13:56.480Z,100589.56
2022-10-24T04:16:59.177Z,100582.41
2022-10-24T04:20:03.156Z,100582.38
2022-10-24T04:23:05.854Z,100580.47
2022-10-24T04:26:08.504Z,100569.47
2022-10-24T04:29:11.121Z,100569.47
2022-10-24T04:32:13.684Z,100571.94
2022-10-24T04:35:17.923Z,100580.50
2022-10-24T04:38:20.728Z,100584.34
2022-10-24T04:41:23.370Z,100579.13
2022-10-24T04:44:26.076Z,100576.09
2022-10-24T04:47:29.515Z,100576.34
2022-10-24T04:50:33.831Z,100581.88
2022-10-24T04:53:36.669Z,100584.91
2022-10-24T04:56:39.233Z,100585.72
2022-10-24T04:59:41.811Z,100589.88
2022-10-24T05:02:44.465Z,100590.41
2022-10-24T05:05:49.099Z,100594.53
2022-10-24T05:08:51.830Z,100597.31
2022-10-24T05:11:56.431Z,100600.59
2022-10-24T05:14:59.197Z,100597.00
2022-10-24T05:18:02.154Z,100589.84
2022-10-24T05:21:06.684Z,100584.88
2022-10-24T05:24:09.660Z,100594.22
2022-10-24T05:27:12.229Z,100598.63
2022-10-24T05:30:15.534Z,100592.00
2022-10-24T05:33:18.143Z,100601.94
2022-10-24T05:36:22.129Z,100611.00
2022-10-24T05:39:24.856Z,100610.72
2022-10-24T05:42:27.500Z,100602.47
2022-10-24T05:45:30.167Z,100598.31
2022-10-24T05:48:32.748Z,100599.16
2022-10-24T05:51:36.721Z,100606.88
2022-10-24T05:54:55.325Z,100597.22
2022-10-24T05:58:02.138Z,100591.16
2022-10-24T06:01:05.020Z,100582.59
2022-10-24T06:04:10.017Z,100587.56
2022-10-24T06:07:17.107Z,100574.63
2022-10-24T06:10:19.931Z,100573.56
2022-10-24T06:13:22.525Z,100571.34
2022-10-24T06:16:27.674Z,100577.41
2022-10-24T06:19:30.343Z,100578.47
2022-10-24T06:22:34.385Z,100569.38
2022-10-24T06:25:37.132Z,100577.66
2022-10-24T06:28:39.963Z,100569.66
2022-10-24T06:31:42.681Z,100574.63
2022-10-24T06:34:45.546Z,100565.50
2022-10-24T06:37:49.780Z,100576.78
2022-10-24T06:40:52.572Z,100576.78
2022-10-24T06:43:56.384Z,100583.91
2022-10-24T06:46:59.056Z,100570.94
2022-10-24T06:50:01.838Z,100573.09
2022-10-24T06:53:05.718Z,100577.25
2022-10-24T06:56:09.312Z,100588.53
2022-10-24T06:59:13.154Z,100593.69
2022-10-24T07:02:17.413Z,100600.88
2022-10-24T07:05:20.341Z,100604.16
2022-10-24T07:08:24.286Z,100613.22
2022-10-24T07:11:28.220Z,100619.84
2022-10-24T07:14:30.801Z,100619.00
2022-10-24T07:17:39.923Z,100620.28
2022-10-24T07:20:42.605Z,100627.59
2022-10-24T07:23:47.193Z,100627.06
2022-10-24T07:26:49.917Z,100624.81
2022-10-24T07:29:52.634Z,100632.53
2022-10-24T07:32:55.858Z,100635.22
2022-10-24T07:35:59.057Z,100637.88
2022-10-24T07:39:03.055Z,100630.63
2022-10-24T07:42:05.813Z,100626.09
2022-10-24T07:45:09.688Z,100627.44
2022-10-24T07:48:12.781Z,100629.41
2022-10-24T07:51:16.250Z,100628.19
2022-10-24T07:54:20.141Z,100627.81
2022-10-24T07:57:23.140Z,100623.78
2022-10-24T08:00:25.931Z,100616.31
2022-10-24T08:03:28.529Z,100626.22
2022-10-24T08:06:32.894Z,100620.16
2022-10-24T08:09:39.869Z,100615.47
2022-10-24T08:12:42.856Z,100622.75
2022-10-24T08:15:45.751Z,100619.31
2022-10-24T08:18:49.209Z,100618.25
2022-10-24T08:21:52.933Z,100613.53
2022-10-24T08:24:56.844Z,100617.44
2022-10-24T08:28:00.228Z,100618.56
2022-10-24T08:31:06.805Z,100622.31
2022-10-24T08:34:13.416Z,100627.63
2022-10-24T08:37:16.118Z,100617.22
2022-10-24T08:40:21.584Z,100617.66
2022-10-24T08:43:25.314Z,100606.03
2022-10-24T08:46:39.873Z,100614.19
2022-10-24T08:49:50.307Z,100604.97
2022-10-24T08:52:59.174Z,100596.66
2022-10-24T08:56:03.256Z,100591.88
2022-10-24T08:59:06.811Z,100597.06
2022-10-24T09:02:19.649Z,100597.50
2022-10-24T09:05:25.800Z,100596.88
2022-10-24T09:08:34.871Z,100605.53
2022-10-24T09:11:47.411Z,100617.06
2022-10-24T09:14:55.624Z,100607.81
2022-10-24T09:17:59.871Z,100601.34
2022-10-24T09:21:03.552Z,100602.06
2022-10-24T09:24:07.742Z,100604.72
2022-10-24T09:27:17.470Z,100613.78
2022-10-24T09:30:28.566Z,100602.66
2022-10-24T09:33:39.494Z,100609.22
2022-10-24T09:36:42.461Z,100606.13
2022-10-24T09:39:45.027Z,100621.28
2022-10-24T09:42:56.095Z,100614.88
2022-10-24T09:46:03.692Z,100608.28
2022-10-24T09:49:20.079Z,100607.72
2022-10-24T09:52:25.396Z,100595.19
2022-10-24T09:55:31.101Z,100598.06
2022-10-24T09:58:35.753Z,100605.69
2022-10-24T10:01:38.566Z,100606.25
2022-10-24T10:04:41.875Z,100609.38
2022-10-24T10:07:48.392Z,100608.34
2022-10-24T10:11:04.536Z,100605.97
2022-10-24T10:14:23.366Z,100597.41
2022-10-24T10:17:28.415Z,100601.69
2022-10-24T10:20:35.998Z,100588.69
2022-10-24T10:23:41.164Z,100590.25
2022-10-24T10:26:45.512Z,100599.84
2022-10-24T10:29:49.573Z,100591.16
2022-10-24T10:33:06.711Z,100596.66
2022-10-24T10:36:17.477Z,100585.78
2022-10-24T10:39:35.932Z,100595.75
2022-10-24T10:42:46.959Z,100594.50
2022-10-24T10:46:05.742Z,100594.69
2022-10-24T10:49:17.251Z,100595.94
2022-10-24T10:52:25.656Z,100588.06
2022-10-24T10:55:36.026Z,100587.66
2022-10-24T10:58:46.927Z,100591.78
2022-10-24T11:01:59.488Z,100585.69
2022-10-24T11:05:17.477Z,100580.34
2022-10-24T11:08:45.879Z,100593.16
2022-10-24T11:11:52.970Z,100588.66
2022-10-24T11:15:01.455Z,100581.16
2022-10-24T11:18:12.356Z,100563.72
2022-10-24T11:21:17.820Z,100567.56
2022-10-24T11:24:24.464Z,100568.19
2022-10-24T11:27:33.952Z,100574.69
2022-10-24T11:30:44.174Z,100576.31
2022-10-24T11:33:56.494Z,100583.09
2022-10-24T11:37:03.951Z,100582.56
2022-10-24T11:40:13.414Z,100577.38
2022-10-24T11:43:23.642Z,100582.69
2022-10-24T11:46:33.914Z,100583.34
2022-10-24T11:49:42.042Z,100580.41
2022-10-24T11:52:49.896Z,100579.97
2022-10-24T11:55:57.889Z,100575.22
2022-10-24T11:59:02.943Z,100567.97
2022-10-24T12:02:51.166Z,100562.59
2022-10-24T12:06:21.552Z,100550.22
2022-10-24T12:09:37.959Z,100548.59
2022-10-24T12:13:03.411Z,100556.00
2022-10-24T12:16:17.102Z,100547.88
2022-10-24T12:19:22.882Z,100541.66
2022-10-24T12:22:35.844Z,100541.59
2022-10-24T12:25:40.321Z,100539.91
2022-10-24T12:28:44.525Z,100540.84
2022-10-24T12:31:47.416Z,100536.22
2022-10-24T12:35:25.387Z,100533.47
2022-10-24T12:39:07.783Z,100524.97
2022-10-24T12:42:17.266Z,100525.63
2022-10-24T12:45:31.002Z,100520.88
2022-10-24T12:48:37.057Z,100518.75
2022-10-24T12:51:41.142Z,100516.00
2022-10-24T12:54:45.479Z,100516.50
2022-10-24T12:57:49.503Z,100511.25
2022-10-24T13:00:57.670Z,100504.13
2022-10-24T13:04:26.199Z,100516.41
2022-10-24T13:07:50.640Z,100509.72
2022-10-24T13:11:11.547Z,100506.78
2022-10-24T13:14:28.883Z,100506.72
2022-10-24T13:17:40.840Z,100517.72
2022-10-24T13:20:45.971Z,100513.81
2022-10-24T13:23:49.829Z,100507.75
2022-10-24T13:27:23.592Z,100503.84
2022-10-24T13:30:28.634Z,100510.00
2022-10-24T13:33:45.470Z,100515.59
2022-10-24T13:36:51.555Z,100502.78
2022-10-24T13:40:01.788Z,100516.69
2022-10-24T13:43:07.970Z,100514.25
2022-10-24T13:46:13.390Z,100527.34
2022-10-24T13:49:23.506Z,100532.09
2022-10-24T13:52:33.790Z,100542.16
2022-10-24T13:55:40.173Z,100536.50
2022-10-24T13:58:45.272Z,100533.53
2022-10-24T14:01:49.441Z,100538.31
2022-10-24T14:04:56.164Z,100531.56
2022-10-24T14:08:02.112Z,100541.34
2022-10-24T14:11:19.747Z,100551.47
2022-10-24T14:14:30.039Z,100545.59
2022-10-24T14:17:35.857Z,100549.50
2022-10-24T14:20:39.038Z,100551.16
2022-10-24T14:23:42.700Z,100543.91
2022-10-24T14:26:46.674Z,100547.88
2022-10-24T14:29:55.434Z,100553.06
2022-10-24T14:33:07.779Z,100556.28
2022-10-24T14:36:18.624Z,100541.75
2022-10-24T14:39:24.665Z,100557.41
2022-10-24T14:42:28.344Z,100555.28
2022-10-24T14:45:32.207Z,100552.34
2022-10-24T14:48:37.313Z,100556.72
2022-10-24T14:51:41.903Z,100560.84
2022-10-24T14:54:54.087Z,100566.66
2022-10-24T14:57:57.266Z,100559.13
2022-10-24T15:01:00.917Z,100561.47
2022-10-24T15:04:06.779Z,100564.50
2022-10-24T15:07:23.072Z,100559.69
2022-10-24T15:10:30.205Z,100556.97
2022-10-24T15:13:34.805Z,100555.78
2022-10-24T15:16:39.800Z,100558.88
2022-10-24T15:19:45.593Z,100563.59
2022-10-24T15:22:50.449Z,100564.00
2022-10-24T15:26:02.644Z,100564.00
2022-10-24T15:29:08.791Z,100564.50
2022-10-24T15:32:12.254Z,100566.22
2022-10-24T15:35:17.875Z,100563.91
2022-10-24T15:38:20.489Z,100558.47
2022-10-24T15:41:23.755Z,100556.94
2022-10-24T15:44:29.487Z,100561.69
2022-10-24T15:47:32.030Z,100565.59
2022-10-24T15:50:36.579Z,100570.97
2022-10-24T15:53:39.121Z,100563.59
2022-10-24T15:56:41.763Z,100570.47
2022-10-24T15:59:44.306Z,100579.97
2022-10-24T16:02:49.069Z,100576.84
2022-10-24T16:05:55.465Z,100582.09
2022-10-24T16:08:58.135Z,100576.09
2022-10-24T16:12:00.729Z,100577.50
2022-10-24T16:15:03.324Z,100585.91
2022-10-24T16:18:06.663Z,100589.94
2022-10-24T16:21:17.204Z,100590.50
2022-10-24T16:24:22.185Z,100588.78
2022-10-24T16:27:24.875Z,100596.81
2022-10-24T16:30:29.536Z,100594.56
2022-10-24T16:33:32.648Z,100600.59
2022-10-24T16:36:36.605Z,100594.13
2022-10-24T16:39:39.270Z,100600.50
2022-10-24T16:42:42.087Z,100601.03
2022-10-24T16:45:47.017Z,100607.28
2022-10-24T16:48:50.693Z,100601.88
2022-10-24T16:51:54.723Z,100614.69
2022-10-24T16:54:57.297Z,100621.88
2022-10-24T16:58:00.373Z,100613.25
2022-10-24T17:01:04.537Z,100610.69
2022-10-24T17:04:07.223Z,100613.66
2022-10-24T17:07:11.416Z,100609.94
2022-10-24T17:10:14.390Z,100616.53
2022-10-24T17:13:16.990Z,100619.50
2022-10-24T17:16:20.785Z,100608.13
2022-10-24T17:19:23.473Z,100613.47
2022-10-24T17:22:27.936Z,100610.06
2022-10-24T17:25:30.729Z,100623.00
2022-10-24T17:28:33.777Z,100623.28
2022-10-24T17:31:36.590Z,100620.03
2022-10-24T17:34:40.069Z,100619.72
2022-10-24T17:37:53.398Z,100628.63
2022-10-24T17:40:58.851Z,100624.56
2022-10-24T17:44:02.282Z,100623.13
2022-10-24T17:47:05.406Z,100631.63
2022-10-24T17:50:09.103Z,100627.00
2022-10-24T17:53:14.262Z,100628.53
2022-10-24T17:56:19.484Z,100616.94
2022-10-24T17:59:24.599Z,100625.91
2022-10-24T18:02:28.604Z,100632.84
2022-10-24T18:05:34.198Z,100642.53
2022-10-24T18:08:38.309Z,100635.38
2022-10-24T18:11:41.188Z,100639.69
2022-10-24T18:14:43.902Z,100638.50
2022-10-24T18:17:47.483Z,100638.16
2022-10-24T18:20:50.471Z,100638.41
2022-10-24T18:23:54.914Z,100638.50
2022-10-24T18:26:57.892Z,100646.19
2022-10-24T18:30:00.603Z,100640.03
2022-10-24T18:33:03.200Z,100651.44
2022-10-24T18:36:08.217Z,100651.84
2022-10-24T18:39:13.308Z,100658.25
2022-10-24T18:42:26.489Z,100656.72
2022-10-24T18:45:30.051Z,100648.72
2022-10-24T18:48:33.594Z,100650.59
2022-10-24T18:51:42.260Z,100653.75
2022-10-24T18:54:54.875Z,100656.00
2022-10-24T18:57:58.660Z,100656.13
2022-10-24T19:01:01.540Z,100651.50
2022-10-24T19:04:13.672Z,100654.41
2022-10-24T19:07:16.924Z,100653.84
2022-10-24T19:10:24.751Z,100648.75
2022-10-24T19:13:28.211Z,100660.34
2022-10-24T19:16:32.496Z,100657.50
2022-10-24T19:19:35.795Z,100658.00
2022-10-24T19:22:38.553Z,100648.56
2022-10-24T19:25:42.669Z,100654.56
2022-10-24T19:28:45.401Z,100653.59
2022-10-24T19:31:48.091Z,100654.13
2022-10-24T19:34:51.329Z,100656.28
2022-10-24T19:37:54.027Z,100656.06
2022-10-24T19:40:58.422Z,100654.94
2022-10-24T19:44:01.131Z,100654.63
2022-10-24T19:47:03.685Z,100662.00
2022-10-24T19:50:07.291Z,100666.53
2022-10-24T19:56:24.113Z,100660.19
2022-10-24T19:59:33.763Z,100658.63
2022-10-24T20:02:36.396Z,100666.44
2022-10-24T20:05:39.475Z,100664.69
2022-10-24T20:08:42.658Z,100666.00
2022-10-24T20:11:46.580Z,100670.44
2022-10-24T20:14:49.273Z,100677.13
2022-10-24T20:17:51.816Z,100676.84
2022-10-24T20:20:54.983Z,100680.50
2022-10-24T20:23:57.646Z,100678.34
2022-10-24T20:27:01.882Z,100682.53
2022-10-24T20:30:05.037Z,100681.41
2022-10-24T20:33:07.647Z,100686.72
2022-10-24T20:36:10.931Z,100686.53
2022-10-24T20:39:21.271Z,100689.88
2022-10-24T20:42:25.362Z,100691.22
2022-10-24T20:45:28.203Z,100694.91
2022-10-24T20:48:30.820Z,100692.50
2022-10-24T20:51:33.736Z,100698.59
2022-10-24T20:54:36.629Z,100704.44
2022-10-24T20:57:41.038Z,100708.84
2022-10-24T21:00:43.901Z,100705.56
2022-10-24T21:03:46.444Z,100702.78
2022-10-24T21:06:49.294Z,100704.50
2022-10-24T21:09:52.476Z,100714.97
2022-10-24T21:12:56.437Z,100717.38
2022-10-24T21:15:59.151Z,100722.13
2022-10-24T21:19:01.975Z,100725.69
2022-10-24T21:22:04.680Z,100728.16
2022-10-24T21:25:08.158Z,100737.84
2022-10-24T21:28:12.069Z,100724.50
2022-10-24T21:31:16.674Z,100732.63
2022-10-24T21:34:19.760Z,100735.13
2022-10-24T21:37:22.366Z,100731.59
2022-10-24T21:40:25.251Z,100724.94
2022-10-24T21:43:29.883Z,100739.44
2022-10-24T21:46:33.392Z,100728.41
2022-10-24T21:49:35.943Z,100740.03
2022-10-24T21:52:38.712Z,100740.34
2022-10-24T21:55:41.368Z,100745.78
2022-10-24T21:58:48.784Z,100746.09
2022-10-24T22:01:53.114Z,100743.09
2022-10-24T22:04:55.900Z,100747.81
2022-10-24T22:07:58.642Z,100741.69
2022-10-24T22:11:03.686Z,100749.16
2022-10-24T22:14:07.713Z,100758.19
2022-10-24T22:17:10.446Z,100760.69
2022-10-24T22:20:13.054Z,100756.91
2022-10-24T22:23:16.212Z,100760.94
2022-10-24T22:26:19.393Z,100765.13
2022-10-24T22:29:25.117Z,100767.09
2022-10-24T22:32:28.292Z,100776.50
2022-10-24T22:35:31.606Z,100778.16
2022-10-24T22:38:34.942Z,100782.34
2022-10-24T22:41:38.130Z,100777.16
2022-10-24T22:44:42.656Z,100786.03
2022-10-24T22:48:00.966Z,100785.75
2022-10-24T22:51:03.814Z,100787.97
2022-10-24T22:54:11.177Z,100797.63
2022-10-24T22:57:14.502Z,100801.56
2022-10-24T23:00:20.118Z,100802.09
2022-10-24T23:03:33.599Z,100803.22
2022-10-24T23:06:43.405Z,100793.63
2022-10-24T23:09:46.103Z,100801.09
2022-10-24T23:12:50.416Z,100804.72
2022-10-24T23:15:58.229Z,100800.31
2022-10-24T23:19:01.718Z,100800.34
2022-10-24T23:22:16.289Z,100805.63
2022-10-24T23:25:21.523Z,100801.22
2022-10-24T23:28:36.272Z,100801.00
2022-10-24T23:31:40.990Z,100805.44
2022-10-24T23:34:44.215Z,100803.25
2022-10-24T23:37:48.541Z,100803.78
2022-10-24T23:40:52.279Z,100808.75
2022-10-24T23:43:55.502Z,100806.31
2022-10-24T23:47:06.390Z,100807.44
2022-10-24T23:50:16.349Z,100807.72
2022-10-24T23:53:26.827Z,100800.84
2022-10-24T23:56:30.628Z,100806.63
2022-10-24T23:59:33.254Z,100814.94
